sensor_id;sensor_type;location;lat;lon;timestamp;P1;durP1;ratioP1;P2;durP2;ratioP2
68614;SDS011;55593;51.994;5.882;2023-04-15T00:01:56;10.27;;;5.28;;
68614;SDS011;55593;51.994;5.882;2023-04-15T00:04:26;11.02;;;5.40;;
68614;SDS011;55593;51.994;5.882;2023-04-15T00:06:56;9.05;;;5.15;;
68614;SDS011;55593;51.994;5.882;2023-04-15T00:09:25;8.60;;;4.63;;
68614;SDS011;55593;51.994;5.882;2023-04-15T00:11:54;9.55;;;5.22;;
68614;SDS011;55593;51.994;5.882;2023-04-15T00:14:26;9.32;;;4.90;;
68614;SDS011;55593;51.994;5.882;2023-04-15T00:16:55;8.40;;;5.22;;
68614;SDS011;55593;51.994;5.882;2023-04-15T00:19:24;9.25;;;5.45;;
68614;SDS011;55593;51.994;5.882;2023-04-15T00:21:54;10.13;;;5.13;;
68614;SDS011;55593;51.994;5.882;2023-04-15T00:24:23;13.32;;;5.97;;
68614;SDS011;55593;51.994;5.882;2023-04-15T00:26:52;14.63;;;5.45;;
68614;SDS011;55593;51.994;5.882;2023-04-15T00:29:22;12.02;;;5.35;;
68614;SDS011;55593;51.994;5.882;2023-04-15T00:31:54;9.65;;;5.03;;
68614;SDS011;55593;51.994;5.882;2023-04-15T00:34:23;8.32;;;5.05;;
68614;SDS011;55593;51.994;5.882;2023-04-15T00:36:52;6.97;;;4.68;;
68614;SDS011;55593;51.994;5.882;2023-04-15T00:39:21;10.98;;;6.53;;
68614;SDS011;55593;51.994;5.882;2023-04-15T00:41:51;7.30;;;5.05;;
68614;SDS011;55593;51.994;5.882;2023-04-15T00:44:20;11.57;;;5.93;;
68614;SDS011;55593;51.994;5.882;2023-04-15T00:46:49;9.75;;;5.32;;
68614;SDS011;55593;51.994;5.882;2023-04-15T00:49:21;9.00;;;5.28;;
68614;SDS011;55593;51.994;5.882;2023-04-15T00:51:52;9.45;;;5.65;;
68614;SDS011;55593;51.994;5.882;2023-04-15T00:54:21;10.85;;;5.85;;
68614;SDS011;55593;51.994;5.882;2023-04-15T00:56:50;10.68;;;5.60;;
68614;SDS011;55593;51.994;5.882;2023-04-15T00:59:19;9.45;;;5.78;;
68614;SDS011;55593;51.994;5.882;2023-04-15T01:01:49;10.20;;;5.07;;
68614;SDS011;55593;51.994;5.882;2023-04-15T01:04:18;10.73;;;5.70;;
68614;SDS011;55593;51.994;5.882;2023-04-15T01:06:50;10.77;;;5.50;;
68614;SDS011;55593;51.994;5.882;2023-04-15T01:09:19;13.10;;;6.15;;
68614;SDS011;55593;51.994;5.882;2023-04-15T01:11:50;9.98;;;6.45;;
68614;SDS011;55593;51.994;5.882;2023-04-15T01:14:19;7.80;;;5.53;;
68614;SDS011;55593;51.994;5.882;2023-04-15T01:16:49;9.38;;;5.53;;
68614;SDS011;55593;51.994;5.882;2023-04-15T01:19:18;12.32;;;6.18;;
68614;SDS011;55593;51.994;5.882;2023-04-15T01:21:50;11.02;;;5.53;;
68614;SDS011;55593;51.994;5.882;2023-04-15T01:24:19;9.95;;;5.80;;
68614;SDS011;55593;51.994;5.882;2023-04-15T01:26:51;12.00;;;6.32;;
68614;SDS011;55593;51.994;5.882;2023-04-15T01:29:20;8.65;;;5.55;;
68614;SDS011;55593;51.994;5.882;2023-04-15T01:31:50;10.57;;;5.30;;
68614;SDS011;55593;51.994;5.882;2023-04-15T01:34:19;9.68;;;5.07;;
68614;SDS011;55593;51.994;5.882;2023-04-15T01:36:53;8.32;;;6.03;;
68614;SDS011;55593;51.994;5.882;2023-04-15T01:39:22;8.57;;;5.68;;
68614;SDS011;55593;51.994;5.882;2023-04-15T01:41:58;9.63;;;5.70;;
68614;SDS011;55593;51.994;5.882;2023-04-15T01:44:28;11.18;;;6.03;;
68614;SDS011;55593;51.994;5.882;2023-04-15T01:46:57;11.10;;;6.03;;
68614;SDS011;55593;51.994;5.882;2023-04-15T01:49:26;7.88;;;6.25;;
68614;SDS011;55593;51.994;5.882;2023-04-15T01:51:56;9.68;;;6.13;;
68614;SDS011;55593;51.994;5.882;2023-04-15T01:54:25;10.68;;;6.50;;
68614;SDS011;55593;51.994;5.882;2023-04-15T01:56:54;9.15;;;5.97;;
68614;SDS011;55593;51.994;5.882;2023-04-15T01:59:27;13.55;;;6.18;;
68614;SDS011;55593;51.994;5.882;2023-04-15T02:01:58;10.80;;;6.15;;
68614;SDS011;55593;51.994;5.882;2023-04-15T02:04:27;10.73;;;6.13;;
68614;SDS011;55593;51.994;5.882;2023-04-15T02:06:59;10.45;;;6.38;;
68614;SDS011;55593;51.994;5.882;2023-04-15T02:09:28;9.98;;;6.05;;
68614;SDS011;55593;51.994;5.882;2023-04-15T02:12:00;11.95;;;6.47;;
68614;SDS011;55593;51.994;5.882;2023-04-15T02:14:29;9.80;;;5.45;;
68614;SDS011;55593;51.994;5.882;2023-04-15T02:16:58;10.65;;;6.97;;
68614;SDS011;55593;51.994;5.882;2023-04-15T02:19:32;10.32;;;6.03;;
68614;SDS011;55593;51.994;5.882;2023-04-15T02:22:02;11.18;;;6.05;;
68614;SDS011;55593;51.994;5.882;2023-04-15T02:24:32;8.98;;;6.25;;
68614;SDS011;55593;51.994;5.882;2023-04-15T02:27:05;8.85;;;5.57;;
68614;SDS011;55593;51.994;5.882;2023-04-15T02:29:34;16.15;;;6.18;;
68614;SDS011;55593;51.994;5.882;2023-04-15T02:32:03;8.95;;;5.82;;
68614;SDS011;55593;51.994;5.882;2023-04-15T02:34:33;8.20;;;6.38;;
68614;SDS011;55593;51.994;5.882;2023-04-15T02:37:04;8.45;;;6.35;;
68614;SDS011;55593;51.994;5.882;2023-04-15T02:39:34;14.20;;;5.90;;
68614;SDS011;55593;51.994;5.882;2023-04-15T02:42:06;10.63;;;6.18;;
68614;SDS011;55593;51.994;5.882;2023-04-15T02:44:36;10.30;;;6.10;;
68614;SDS011;55593;51.994;5.882;2023-04-15T02:47:05;11.50;;;6.32;;
68614;SDS011;55593;51.994;5.882;2023-04-15T02:49:36;10.95;;;6.22;;
68614;SDS011;55593;51.994;5.882;2023-04-15T02:52:06;9.80;;;6.53;;
68614;SDS011;55593;51.994;5.882;2023-04-15T02:54:35;10.02;;;5.95;;
68614;SDS011;55593;51.994;5.882;2023-04-15T02:57:06;13.75;;;6.68;;
68614;SDS011;55593;51.994;5.882;2023-04-15T02:59:36;9.05;;;6.30;;
68614;SDS011;55593;51.994;5.882;2023-04-15T03:02:06;9.95;;;5.80;;
68614;SDS011;55593;51.994;5.882;2023-04-15T03:04:35;16.13;;;6.97;;
68614;SDS011;55593;51.994;5.882;2023-04-15T03:07:04;10.80;;;6.03;;
68614;SDS011;55593;51.994;5.882;2023-04-15T03:09:34;10.77;;;5.75;;
68614;SDS011;55593;51.994;5.882;2023-04-15T03:12:08;14.98;;;7.13;;
68614;SDS011;55593;51.994;5.882;2023-04-15T03:14:37;13.30;;;6.60;;
68614;SDS011;55593;51.994;5.882;2023-04-15T03:17:06;12.95;;;6.63;;
68614;SDS011;55593;51.994;5.882;2023-04-15T03:19:37;10.80;;;6.93;;
68614;SDS011;55593;51.994;5.882;2023-04-15T03:22:08;10.85;;;6.45;;
68614;SDS011;55593;51.994;5.882;2023-04-15T03:24:37;11.23;;;6.82;;
68614;SDS011;55593;51.994;5.882;2023-04-15T03:27:09;9.68;;;7.05;;
68614;SDS011;55593;51.994;5.882;2023-04-15T03:29:38;11.68;;;7.15;;
68614;SDS011;55593;51.994;5.882;2023-04-15T03:32:08;11.45;;;7.05;;
68614;SDS011;55593;51.994;5.882;2023-04-15T03:34:37;15.48;;;7.25;;
68614;SDS011;55593;51.994;5.882;2023-04-15T03:37:06;11.73;;;7.50;;
68614;SDS011;55593;51.994;5.882;2023-04-15T03:39:36;12.43;;;7.97;;
68614;SDS011;55593;51.994;5.882;2023-04-15T03:42:05;12.63;;;7.55;;
68614;SDS011;55593;51.994;5.882;2023-04-15T03:44:37;16.63;;;8.48;;
68614;SDS011;55593;51.994;5.882;2023-04-15T03:47:07;10.93;;;6.90;;
68614;SDS011;55593;51.994;5.882;2023-04-15T03:49:36;13.02;;;7.53;;
68614;SDS011;55593;51.994;5.882;2023-04-15T03:52:05;11.52;;;7.90;;
68614;SDS011;55593;51.994;5.882;2023-04-15T03:54:34;11.27;;;7.18;;
68614;SDS011;55593;51.994;5.882;2023-04-15T03:57:04;10.65;;;7.60;;
68614;SDS011;55593;51.994;5.882;2023-04-15T03:59:33;16.15;;;8.20;;
68614;SDS011;55593;51.994;5.882;2023-04-15T04:02:04;14.23;;;8.05;;
68614;SDS011;55593;51.994;5.882;2023-04-15T04:04:34;10.80;;;7.15;;
68614;SDS011;55593;51.994;5.882;2023-04-15T04:07:03;11.70;;;8.35;;
68614;SDS011;55593;51.994;5.882;2023-04-15T04:09:32;11.55;;;7.63;;
68614;SDS011;55593;51.994;5.882;2023-04-15T04:12:03;11.30;;;8.63;;
68614;SDS011;55593;51.994;5.882;2023-04-15T04:14:32;11.70;;;7.75;;
68614;SDS011;55593;51.994;5.882;2023-04-15T04:17:04;12.45;;;7.43;;
68614;SDS011;55593;51.994;5.882;2023-04-15T04:19:34;15.63;;;8.50;;
68614;SDS011;55593;51.994;5.882;2023-04-15T04:22:03;12.55;;;8.07;;
68614;SDS011;55593;51.994;5.882;2023-04-15T04:24:32;15.68;;;8.85;;
68614;SDS011;55593;51.994;5.882;2023-04-15T04:27:01;13.20;;;9.82;;
68614;SDS011;55593;51.994;5.882;2023-04-15T04:29:30;10.55;;;9.05;;
68614;SDS011;55593;51.994;5.882;2023-04-15T04:31:59;12.43;;;9.15;;
68614;SDS011;55593;51.994;5.882;2023-04-15T04:34:31;13.30;;;8.00;;
68614;SDS011;55593;51.994;5.882;2023-04-15T04:37:00;14.18;;;8.77;;
68614;SDS011;55593;51.994;5.882;2023-04-15T04:39:30;13.18;;;8.90;;
68614;SDS011;55593;51.994;5.882;2023-04-15T04:41:59;16.48;;;9.43;;
68614;SDS011;55593;51.994;5.882;2023-04-15T04:44:28;13.48;;;9.63;;
68614;SDS011;55593;51.994;5.882;2023-04-15T04:46:58;12.27;;;9.23;;
68614;SDS011;55593;51.994;5.882;2023-04-15T04:49:27;11.80;;;8.50;;
68614;SDS011;55593;51.994;5.882;2023-04-15T04:51:58;11.43;;;8.88;;
68614;SDS011;55593;51.994;5.882;2023-04-15T04:54:28;11.70;;;9.48;;
68614;SDS011;55593;51.994;5.882;2023-04-15T04:56:57;12.18;;;8.95;;
68614;SDS011;55593;51.994;5.882;2023-04-15T04:59:27;16.00;;;10.25;;
68614;SDS011;55593;51.994;5.882;2023-04-15T05:01:56;13.20;;;9.88;;
68614;SDS011;55593;51.994;5.882;2023-04-15T05:04:25;14.90;;;9.90;;
68614;SDS011;55593;51.994;5.882;2023-04-15T05:06:56;13.40;;;9.38;;
68614;SDS011;55593;51.994;5.882;2023-04-15T05:09:27;17.75;;;9.57;;
68614;SDS011;55593;51.994;5.882;2023-04-15T05:11:58;12.40;;;9.18;;
68614;SDS011;55593;51.994;5.882;2023-04-15T05:14:27;17.27;;;9.88;;
68614;SDS011;55593;51.994;5.882;2023-04-15T05:16:57;12.63;;;9.95;;
68614;SDS011;55593;51.994;5.882;2023-04-15T05:19:26;14.57;;;9.00;;
68614;SDS011;55593;51.994;5.882;2023-04-15T05:21:55;17.33;;;10.10;;
68614;SDS011;55593;51.994;5.882;2023-04-15T05:24:27;12.07;;;9.77;;
68614;SDS011;55593;51.994;5.882;2023-04-15T05:26:56;16.35;;;10.27;;
68614;SDS011;55593;51.994;5.882;2023-04-15T05:29:26;15.50;;;9.05;;
68614;SDS011;55593;51.994;5.882;2023-04-15T05:31:56;15.20;;;9.82;;
68614;SDS011;55593;51.994;5.882;2023-04-15T05:34:25;14.90;;;9.52;;
68614;SDS011;55593;51.994;5.882;2023-04-15T05:36:54;13.88;;;10.18;;
68614;SDS011;55593;51.994;5.882;2023-04-15T05:39:23;14.90;;;9.98;;
68614;SDS011;55593;51.994;5.882;2023-04-15T05:41:55;12.23;;;9.38;;
68614;SDS011;55593;51.994;5.882;2023-04-15T05:44:24;12.88;;;9.75;;
68614;SDS011;55593;51.994;5.882;2023-04-15T05:46:53;15.18;;;10.10;;
68614;SDS011;55593;51.994;5.882;2023-04-15T05:49:23;16.85;;;9.70;;
68614;SDS011;55593;51.994;5.882;2023-04-15T05:51:52;12.55;;;10.05;;
68614;SDS011;55593;51.994;5.882;2023-04-15T05:54:21;15.88;;;9.82;;
68614;SDS011;55593;51.994;5.882;2023-04-15T05:56:55;17.20;;;10.57;;
68614;SDS011;55593;51.994;5.882;2023-04-15T05:59:24;15.88;;;10.43;;
68614;SDS011;55593;51.994;5.882;2023-04-15T06:01:54;15.20;;;10.88;;
68614;SDS011;55593;51.994;5.882;2023-04-15T06:04:23;16.65;;;10.75;;
68614;SDS011;55593;51.994;5.882;2023-04-15T06:06:52;13.95;;;10.63;;
68614;SDS011;55593;51.994;5.882;2023-04-15T06:09:21;14.00;;;11.05;;
68614;SDS011;55593;51.994;5.882;2023-04-15T06:11:51;14.35;;;10.52;;
68614;SDS011;55593;51.994;5.882;2023-04-15T06:14:23;15.52;;;11.02;;
68614;SDS011;55593;51.994;5.882;2023-04-15T06:16:52;16.77;;;11.52;;
68614;SDS011;55593;51.994;5.882;2023-04-15T06:19:22;17.40;;;10.93;;
68614;SDS011;55593;51.994;5.882;2023-04-15T06:21:51;12.75;;;10.60;;
68614;SDS011;55593;51.994;5.882;2023-04-15T06:24:20;14.40;;;10.70;;
68614;SDS011;55593;51.994;5.882;2023-04-15T06:26:49;13.00;;;10.40;;
68614;SDS011;55593;51.994;5.882;2023-04-15T06:29:18;19.05;;;10.18;;
68614;SDS011;55593;51.994;5.882;2023-04-15T06:31:50;16.92;;;10.25;;
68614;SDS011;55593;51.994;5.882;2023-04-15T06:34:19;11.77;;;9.15;;
68614;SDS011;55593;51.994;5.882;2023-04-15T06:36:48;13.38;;;9.68;;
68614;SDS011;55593;51.994;5.882;2023-04-15T06:39:19;12.43;;;8.95;;
68614;SDS011;55593;51.994;5.882;2023-04-15T06:41:48;14.70;;;9.15;;
68614;SDS011;55593;51.994;5.882;2023-04-15T06:44:20;13.60;;;8.90;;
68614;SDS011;55593;51.994;5.882;2023-04-15T06:46:52;12.07;;;8.85;;
68614;SDS011;55593;51.994;5.882;2023-04-15T06:49:21;11.65;;;9.27;;
68614;SDS011;55593;51.994;5.882;2023-04-15T06:51:51;15.90;;;11.10;;
68614;SDS011;55593;51.994;5.882;2023-04-15T06:54:21;20.35;;;11.48;;
68614;SDS011;55593;51.994;5.882;2023-04-15T06:56:50;15.90;;;11.40;;
68614;SDS011;55593;51.994;5.882;2023-04-15T06:59:19;15.57;;;11.07;;
68614;SDS011;55593;51.994;5.882;2023-04-15T07:01:48;16.38;;;10.68;;
68614;SDS011;55593;51.994;5.882;2023-04-15T07:04:20;17.25;;;11.32;;
68614;SDS011;55593;51.994;5.882;2023-04-15T07:06:50;14.63;;;10.85;;
68614;SDS011;55593;51.994;5.882;2023-04-15T07:09:20;15.77;;;10.73;;
68614;SDS011;55593;51.994;5.882;2023-04-15T07:11:50;13.02;;;9.70;;
68614;SDS011;55593;51.994;5.882;2023-04-15T07:14:19;11.35;;;9.15;;
68614;SDS011;55593;51.994;5.882;2023-04-15T07:16:48;15.98;;;10.55;;
68614;SDS011;55593;51.994;5.882;2023-04-15T07:19:20;15.38;;;11.15;;
68614;SDS011;55593;51.994;5.882;2023-04-15T07:21:49;13.60;;;9.13;;
68614;SDS011;55593;51.994;5.882;2023-04-15T07:24:18;13.68;;;10.10;;
68614;SDS011;55593;51.994;5.882;2023-04-15T07:26:51;18.02;;;10.52;;
68614;SDS011;55593;51.994;5.882;2023-04-15T07:29:22;12.43;;;9.73;;
68614;SDS011;55593;51.994;5.882;2023-04-15T07:31:51;14.35;;;10.18;;
68614;SDS011;55593;51.994;5.882;2023-04-15T07:34:24;14.38;;;8.27;;
68614;SDS011;55593;51.994;5.882;2023-04-15T07:36:53;12.35;;;8.70;;
68614;SDS011;55593;51.994;5.882;2023-04-15T07:39:22;13.07;;;9.27;;
68614;SDS011;55593;51.994;5.882;2023-04-15T07:41:51;12.18;;;9.13;;
68614;SDS011;55593;51.994;5.882;2023-04-15T07:44:21;13.93;;;10.02;;
68614;SDS011;55593;51.994;5.882;2023-04-15T07:46:50;13.40;;;9.38;;
68614;SDS011;55593;51.994;5.882;2023-04-15T07:49:19;13.00;;;8.80;;
68614;SDS011;55593;51.994;5.882;2023-04-15T07:51:51;12.68;;;9.27;;
68614;SDS011;55593;51.994;5.882;2023-04-15T07:54:22;13.65;;;9.20;;
68614;SDS011;55593;51.994;5.882;2023-04-15T07:56:52;12.38;;;9.40;;
68614;SDS011;55593;51.994;5.882;2023-04-15T07:59:21;13.77;;;9.63;;
68614;SDS011;55593;51.994;5.882;2023-04-15T08:01:52;48.25;;;9.85;;
68614;SDS011;55593;51.994;5.882;2023-04-15T08:04:21;12.40;;;9.50;;
68614;SDS011;55593;51.994;5.882;2023-04-15T08:06:53;12.25;;;9.85;;
68614;SDS011;55593;51.994;5.882;2023-04-15T08:09:22;18.08;;;9.18;;
68614;SDS011;55593;51.994;5.882;2023-04-15T08:11:52;14.07;;;9.65;;
68614;SDS011;55593;51.994;5.882;2023-04-15T08:14:21;13.15;;;8.63;;
68614;SDS011;55593;51.994;5.882;2023-04-15T08:16:50;16.17;;;8.95;;
68614;SDS011;55593;51.994;5.882;2023-04-15T08:19:19;10.57;;;7.20;;
68614;SDS011;55593;51.994;5.882;2023-04-15T08:21:49;11.05;;;7.40;;
68614;SDS011;55593;51.994;5.882;2023-04-15T08:24:20;10.50;;;7.78;;
68614;SDS011;55593;51.994;5.882;2023-04-15T08:26:51;10.70;;;7.20;;
68614;SDS011;55593;51.994;5.882;2023-04-15T08:29:20;9.75;;;6.25;;
68614;SDS011;55593;51.994;5.882;2023-04-15T08:31:49;14.60;;;6.53;;
68614;SDS011;55593;51.994;5.882;2023-04-15T08:34:18;8.77;;;5.45;;
68614;SDS011;55593;51.994;5.882;2023-04-15T08:36:47;6.88;;;4.28;;
68614;SDS011;55593;51.994;5.882;2023-04-15T08:39:17;7.07;;;5.35;;
68614;SDS011;55593;51.994;5.882;2023-04-15T08:41:51;10.63;;;4.80;;
68614;SDS011;55593;51.994;5.882;2023-04-15T08:44:24;7.55;;;4.70;;
68614;SDS011;55593;51.994;5.882;2023-04-15T08:46:54;18.73;;;5.25;;
68614;SDS011;55593;51.994;5.882;2023-04-15T08:49:24;5.97;;;4.65;;
68614;SDS011;55593;51.994;5.882;2023-04-15T08:51:55;19.80;;;5.53;;
68614;SDS011;55593;51.994;5.882;2023-04-15T08:54:26;6.32;;;4.82;;
68614;SDS011;55593;51.994;5.882;2023-04-15T08:56:58;7.78;;;3.92;;
68614;SDS011;55593;51.994;5.882;2023-04-15T08:59:28;8.80;;;4.35;;
68614;SDS011;55593;51.994;5.882;2023-04-15T09:01:58;7.72;;;4.22;;
68614;SDS011;55593;51.994;5.882;2023-04-15T09:04:27;6.47;;;4.13;;
68614;SDS011;55593;51.994;5.882;2023-04-15T09:06:56;6.13;;;4.38;;
68614;SDS011;55593;51.994;5.882;2023-04-15T09:09:26;6.40;;;4.40;;
68614;SDS011;55593;51.994;5.882;2023-04-15T09:11:55;6.40;;;4.28;;
68614;SDS011;55593;51.994;5.882;2023-04-15T09:14:27;7.32;;;4.43;;
68614;SDS011;55593;51.994;5.882;2023-04-15T09:16:57;6.50;;;4.43;;
68614;SDS011;55593;51.994;5.882;2023-04-15T09:19:27;7.07;;;4.53;;
68614;SDS011;55593;51.994;5.882;2023-04-15T09:21:58;10.73;;;5.65;;
68614;SDS011;55593;51.994;5.882;2023-04-15T09:24:33;15.05;;;5.18;;
68614;SDS011;55593;51.994;5.882;2023-04-15T09:27:05;7.55;;;5.28;;
68614;SDS011;55593;51.994;5.882;2023-04-15T09:29:37;6.70;;;5.15;;
68614;SDS011;55593;51.994;5.882;2023-04-15T09:32:11;6.25;;;4.65;;
68614;SDS011;55593;51.994;5.882;2023-04-15T09:34:41;6.60;;;4.45;;
68614;SDS011;55593;51.994;5.882;2023-04-15T09:37:11;6.88;;;4.65;;
68614;SDS011;55593;51.994;5.882;2023-04-15T09:39:46;5.95;;;4.57;;
68614;SDS011;55593;51.994;5.882;2023-04-15T09:42:16;5.90;;;4.32;;
68614;SDS011;55593;51.994;5.882;2023-04-15T09:44:51;8.50;;;4.80;;
68614;SDS011;55593;51.994;5.882;2023-04-15T09:47:25;9.35;;;4.53;;
68614;SDS011;55593;51.994;5.882;2023-04-15T09:49:56;6.10;;;4.10;;
68614;SDS011;55593;51.994;5.882;2023-04-15T09:52:26;5.55;;;3.90;;
68614;SDS011;55593;51.994;5.882;2023-04-15T09:54:56;7.28;;;4.50;;
68614;SDS011;55593;51.994;5.882;2023-04-15T09:57:32;8.10;;;4.85;;
68614;SDS011;55593;51.994;5.882;2023-04-15T10:00:06;6.35;;;4.32;;
68614;SDS011;55593;51.994;5.882;2023-04-15T10:02:36;10.27;;;5.05;;
68614;SDS011;55593;51.994;5.882;2023-04-15T10:05:05;8.00;;;4.75;;
68614;SDS011;55593;51.994;5.882;2023-04-15T10:07:35;7.43;;;5.05;;
68614;SDS011;55593;51.994;5.882;2023-04-15T10:10:06;6.75;;;4.13;;
68614;SDS011;55593;51.994;5.882;2023-04-15T10:12:36;7.20;;;4.38;;
68614;SDS011;55593;51.994;5.882;2023-04-15T10:15:11;8.90;;;3.88;;
68614;SDS011;55593;51.994;5.882;2023-04-15T10:17:43;6.93;;;4.25;;
68614;SDS011;55593;51.994;5.882;2023-04-15T10:20:13;5.18;;;3.55;;
68614;SDS011;55593;51.994;5.882;2023-04-15T10:22:43;7.97;;;4.63;;
68614;SDS011;55593;51.994;5.882;2023-04-15T10:25:13;6.20;;;3.78;;
68614;SDS011;55593;51.994;5.882;2023-04-15T10:27:43;9.23;;;4.07;;
68614;SDS011;55593;51.994;5.882;2023-04-15T10:30:16;5.20;;;3.83;;
68614;SDS011;55593;51.994;5.882;2023-04-15T10:32:45;5.72;;;3.63;;
68614;SDS011;55593;51.994;5.882;2023-04-15T10:35:14;8.30;;;3.92;;
68614;SDS011;55593;51.994;5.882;2023-04-15T10:37:44;6.43;;;4.43;;
68614;SDS011;55593;51.994;5.882;2023-04-15T10:40:23;9.00;;;3.80;;
68614;SDS011;55593;51.994;5.882;2023-04-15T10:42:54;6.63;;;4.30;;
68614;SDS011;55593;51.994;5.882;2023-04-15T10:45:31;5.75;;;3.47;;
68614;SDS011;55593;51.994;5.882;2023-04-15T10:48:02;5.20;;;3.60;;
68614;SDS011;55593;51.994;5.882;2023-04-15T10:50:32;4.88;;;3.33;;
68614;SDS011;55593;51.994;5.882;2023-04-15T10:53:02;5.75;;;3.38;;
68614;SDS011;55593;51.994;5.882;2023-04-15T10:55:32;6.80;;;4.45;;
68614;SDS011;55593;51.994;5.882;2023-04-15T10:58:02;7.13;;;3.95;;
68614;SDS011;55593;51.994;5.882;2023-04-15T11:00:35;5.68;;;3.80;;
68614;SDS011;55593;51.994;5.882;2023-04-15T11:03:06;5.10;;;3.05;;
68614;SDS011;55593;51.994;5.882;2023-04-15T11:05:49;5.78;;;3.67;;
68614;SDS011;55593;51.994;5.882;2023-04-15T11:08:19;7.82;;;3.55;;
68614;SDS011;55593;51.994;5.882;2023-04-15T11:11:21;6.13;;;3.08;;
68614;SDS011;55593;51.994;5.882;2023-04-15T11:13:50;8.15;;;3.03;;
68614;SDS011;55593;51.994;5.882;2023-04-15T11:16:22;4.00;;;2.83;;
68614;SDS011;55593;51.994;5.882;2023-04-15T11:18:52;5.70;;;2.60;;
68614;SDS011;55593;51.994;5.882;2023-04-15T11:21:23;4.82;;;2.97;;
68614;SDS011;55593;51.994;5.882;2023-04-15T11:23:54;5.82;;;2.67;;
68614;SDS011;55593;51.994;5.882;2023-04-15T11:26:25;5.72;;;2.75;;
68614;SDS011;55593;51.994;5.882;2023-04-15T11:28:54;6.07;;;3.17;;
68614;SDS011;55593;51.994;5.882;2023-04-15T11:31:27;3.97;;;2.45;;
68614;SDS011;55593;51.994;5.882;2023-04-15T11:33:57;5.05;;;2.97;;
68614;SDS011;55593;51.994;5.882;2023-04-15T11:36:28;4.10;;;2.50;;
68614;SDS011;55593;51.994;5.882;2023-04-15T11:38:58;5.30;;;2.15;;
68614;SDS011;55593;51.994;5.882;2023-04-15T11:41:27;7.13;;;2.40;;
68614;SDS011;55593;51.994;5.882;2023-04-15T11:43:56;4.72;;;2.10;;
68614;SDS011;55593;51.994;5.882;2023-04-15T11:46:31;5.05;;;2.63;;
68614;SDS011;55593;51.994;5.882;2023-04-15T11:49:00;4.53;;;2.50;;
68614;SDS011;55593;51.994;5.882;2023-04-15T11:51:31;4.22;;;2.10;;
68614;SDS011;55593;51.994;5.882;2023-04-15T11:54:01;5.63;;;2.03;;
68614;SDS011;55593;51.994;5.882;2023-04-15T11:56:31;3.97;;;2.00;;
68614;SDS011;55593;51.994;5.882;2023-04-15T11:59:00;4.22;;;1.70;;
68614;SDS011;55593;51.994;5.882;2023-04-15T12:01:33;5.03;;;1.83;;
68614;SDS011;55593;51.994;5.882;2023-04-15T12:04:09;2.72;;;1.70;;
68614;SDS011;55593;51.994;5.882;2023-04-15T12:06:39;5.53;;;1.80;;
68614;SDS011;55593;51.994;5.882;2023-04-15T12:09:12;4.35;;;2.08;;
68614;SDS011;55593;51.994;5.882;2023-04-15T12:11:45;4.53;;;1.80;;
68614;SDS011;55593;51.994;5.882;2023-04-15T12:14:20;6.72;;;1.85;;
68614;SDS011;55593;51.994;5.882;2023-04-15T12:16:53;2.35;;;1.33;;
68614;SDS011;55593;51.994;5.882;2023-04-15T12:19:26;5.20;;;2.60;;
68614;SDS011;55593;51.994;5.882;2023-04-15T12:21:57;3.95;;;2.00;;
68614;SDS011;55593;51.994;5.882;2023-04-15T12:24:30;5.13;;;2.20;;
68614;SDS011;55593;51.994;5.882;2023-04-15T12:27:01;4.03;;;1.83;;
68614;SDS011;55593;51.994;5.882;2023-04-15T12:29:32;5.55;;;2.08;;
68614;SDS011;55593;51.994;5.882;2023-04-15T12:32:08;4.32;;;1.50;;
68614;SDS011;55593;51.994;5.882;2023-04-15T12:37:08;4.97;;;1.80;;
68614;SDS011;55593;51.994;5.882;2023-04-15T12:39:39;4.00;;;1.85;;
68614;SDS011;55593;51.994;5.882;2023-04-15T12:42:09;5.55;;;2.17;;
68614;SDS011;55593;51.994;5.882;2023-04-15T12:44:38;7.03;;;1.77;;
68614;SDS011;55593;51.994;5.882;2023-04-15T12:47:11;4.93;;;2.13;;
68614;SDS011;55593;51.994;5.882;2023-04-15T12:49:40;3.67;;;2.28;;
68614;SDS011;55593;51.994;5.882;2023-04-15T12:52:10;4.72;;;2.67;;
68614;SDS011;55593;51.994;5.882;2023-04-15T12:54:39;5.32;;;2.55;;
68614;SDS011;55593;51.994;5.882;2023-04-15T12:57:09;3.58;;;2.20;;
68614;SDS011;55593;51.994;5.882;2023-04-15T12:59:38;6.53;;;2.17;;
68614;SDS011;55593;51.994;5.882;2023-04-15T13:02:09;8.18;;;2.45;;
68614;SDS011;55593;51.994;5.882;2023-04-15T13:04:39;6.38;;;2.15;;
68614;SDS011;55593;51.994;5.882;2023-04-15T13:07:08;3.47;;;1.90;;
68614;SDS011;55593;51.994;5.882;2023-04-15T13:09:38;5.80;;;2.08;;
68614;SDS011;55593;51.994;5.882;2023-04-15T13:12:07;4.43;;;1.85;;
68614;SDS011;55593;51.994;5.882;2023-04-15T13:14:38;13.05;;;1.83;;
68614;SDS011;55593;51.994;5.882;2023-04-15T13:17:10;3.85;;;1.55;;
68614;SDS011;55593;51.994;5.882;2023-04-15T13:19:39;4.43;;;1.40;;
68614;SDS011;55593;51.994;5.882;2023-04-15T13:22:08;6.65;;;1.50;;
68614;SDS011;55593;51.994;5.882;2023-04-15T13:24:39;3.50;;;1.30;;
68614;SDS011;55593;51.994;5.882;2023-04-15T13:27:08;6.20;;;1.58;;
68614;SDS011;55593;51.994;5.882;2023-04-15T13:29:38;3.38;;;1.60;;
68614;SDS011;55593;51.994;5.882;2023-04-15T13:32:09;6.30;;;1.80;;
68614;SDS011;55593;51.994;5.882;2023-04-15T13:34:39;5.93;;;1.67;;
68614;SDS011;55593;51.994;5.882;2023-04-15T13:37:08;2.78;;;1.30;;
68614;SDS011;55593;51.994;5.882;2023-04-15T13:39:37;5.88;;;1.60;;
68614;SDS011;55593;51.994;5.882;2023-04-15T13:42:06;5.35;;;1.33;;
68614;SDS011;55593;51.994;5.882;2023-04-15T13:44:35;3.83;;;1.25;;
68614;SDS011;55593;51.994;5.882;2023-04-15T13:47:05;4.22;;;1.25;;
68614;SDS011;55593;51.994;5.882;2023-04-15T13:49:37;6.03;;;1.60;;
68614;SDS011;55593;51.994;5.882;2023-04-15T13:52:06;3.10;;;1.50;;
68614;SDS011;55593;51.994;5.882;2023-04-15T13:54:35;3.10;;;1.30;;
68614;SDS011;55593;51.994;5.882;2023-04-15T13:57:04;9.95;;;2.53;;
68614;SDS011;55593;51.994;5.882;2023-04-15T13:59:34;21.95;;;10.77;;
68614;SDS011;55593;51.994;5.882;2023-04-15T14:02:03;4.18;;;1.67;;
68614;SDS011;55593;51.994;5.882;2023-04-15T14:04:32;3.90;;;1.30;;
68614;SDS011;55593;51.994;5.882;2023-04-15T14:07:04;3.03;;;1.55;;
68614;SDS011;55593;51.994;5.882;2023-04-15T14:09:33;2.95;;;1.42;;
68614;SDS011;55593;51.994;5.882;2023-04-15T14:12:03;3.15;;;1.50;;
68614;SDS011;55593;51.994;5.882;2023-04-15T14:14:32;2.75;;;1.25;;
68614;SDS011;55593;51.994;5.882;2023-04-15T14:17:02;3.45;;;1.30;;
68614;SDS011;55593;51.994;5.882;2023-04-15T14:19:34;4.65;;;2.85;;
68614;SDS011;55593;51.994;5.882;2023-04-15T14:22:06;5.18;;;3.13;;
68614;SDS011;55593;51.994;5.882;2023-04-15T14:24:35;10.77;;;3.00;;
68614;SDS011;55593;51.994;5.882;2023-04-15T14:27:05;3.33;;;1.95;;
68614;SDS011;55593;51.994;5.882;2023-04-15T14:29:36;3.78;;;1.50;;
68614;SDS011;55593;51.994;5.882;2023-04-15T14:32:06;5.82;;;2.03;;
68614;SDS011;55593;51.994;5.882;2023-04-15T14:34:35;12.23;;;2.25;;
68614;SDS011;55593;51.994;5.882;2023-04-15T14:37:07;4.32;;;1.58;;
68614;SDS011;55593;51.994;5.882;2023-04-15T14:39:36;5.03;;;1.50;;
68614;SDS011;55593;51.994;5.882;2023-04-15T14:42:05;3.95;;;1.73;;
68614;SDS011;55593;51.994;5.882;2023-04-15T14:44:34;3.05;;;1.50;;
68614;SDS011;55593;51.994;5.882;2023-04-15T14:47:03;7.40;;;1.98;;
68614;SDS011;55593;51.994;5.882;2023-04-15T14:49:33;4.40;;;1.85;;
68614;SDS011;55593;51.994;5.882;2023-04-15T14:52:02;6.78;;;2.78;;
68614;SDS011;55593;51.994;5.882;2023-04-15T14:54:34;5.57;;;1.75;;
68614;SDS011;55593;51.994;5.882;2023-04-15T14:57:03;3.30;;;1.88;;
68614;SDS011;55593;51.994;5.882;2023-04-15T14:59:33;3.88;;;1.70;;
68614;SDS011;55593;51.994;5.882;2023-04-15T15:02:02;3.65;;;1.85;;